Carolina, PR

9:37 PM AST on August 30, 2014 (GMT -0400)
Mercedita | Change Station
CLOSE
Current Station
Airport
Location: Ponce,
Elevation: 30 ft
Nearby Weather Stations

Elev 30 ft 18.01 °N, 66.56 °W | Updated 47 minutes ago

Partly Cloudy
Partly Cloudy
81 °F
Feels Like 86 °F
N
6
Wind Variable Wind from NE

Today
High -- | Low -- °F
--% Chance of Precip.
Yesterday
High -- | Low -- °F
Precip. -- in
6:09 AM 6:39 PM
Waxing Crescent, 26% visible
Pressure 29.99 in
Visibility 8.0 miles
Clouds Few 3000 ft
Heat Index 86 °F
Dew Point 75 °F
Humidity 84%
Rainfall 0.00 in
Snow Depth Not available.
UV 0 out of 12
Pollen Not available.
Air Quality Not available.
Flu Activity Not available.
METAR TJPS 310050Z 04005KT 8SM FEW030 27/24 A2999

More Conditions Fewer Conditions

Pressure 29.99 in
Visibility 8.0 miles
Clouds Few 3000 ft
Heat Index 86 °F
Dew Point 75 °F
Humidity 84%
Rainfall 0.00 in
Snow Depth Not available.
UV 0 out of 12
Pollen Not available.
Air Quality Not available.
Flu Activity Not available.
METAR TJPS 310050Z 04005KT 8SM FEW030 27/24 A2999

More Conditions Fewer Conditions

10-Day Weather Forecast

Almanac

Astronomy

Aug. 30, 2014 Rise Set
Actual Time 6:09 AM AST 6:39 PM AST
Civil Twilight 5:46 AM AST 7:01 PM AST
Nautical Twilight 5:20 AM AST 7:27 PM AST
Astronomical Twilight 4:54 AM AST 7:53 PM AST
Moon 10:08 AM AST (8/30) 9:57 PM AST (8/30)
Length of Visible Light 13h 15m
Length of Day
12h 30m
Tomorrow will be 0m 59s shorter.
Waxing Crescent, 26% of the Moon is Illuminated
Today
Waxing Crescent
Sep 2
First Quarter
Sep 8
Full
Sep 15
Last Quarter
Sep 24
New

Community

WunderPhotos

Upload Photos

1,748,716 photos uploaded!

Nearby

Snow Depth

Station Depth Elevation
No new snow has been reported.

Earthquake Activity

City Distance Mag. Time & Date
No recent earthquake activity has been reported nearby.
Minimum magnitude displayed is 2.5.

Coastal Water Temperatures

Place Temperature
San Juan, PR 84.9 °F
Mayaguez, PR 84.9 °F
Esperanza, PR 84.9 °F

Nearby Weather Stations